createdAt,value
2023-04-18T00:00:56.429Z,1.75
2023-04-18T00:07:03.560Z,1.73
2023-04-18T00:10:08.882Z,1.45
2023-04-18T00:16:16.142Z,1.52
2023-04-18T00:19:20.227Z,1.40
2023-04-18T00:22:23.648Z,1.53
2023-04-18T00:25:26.838Z,1.67
2023-04-18T00:28:30.089Z,1.35
2023-04-18T00:31:33.059Z,1.40
2023-04-18T00:34:36.382Z,1.42
2023-04-18T00:37:39.300Z,1.55
2023-04-18T00:40:42.585Z,1.45
2023-04-18T00:43:45.820Z,1.33
2023-04-18T00:46:49.125Z,1.58
2023-04-18T00:49:52.076Z,1.50
2023-04-18T00:52:56.944Z,1.52
2023-04-18T00:56:00.067Z,1.50
2023-04-18T00:59:04.253Z,1.70
2023-04-18T01:02:07.317Z,1.77
2023-04-18T01:05:11.053Z,2.00
2023-04-18T01:08:14.564Z,1.65
2023-04-18T01:11:17.960Z,1.95
2023-04-18T01:14:24.128Z,1.80
2023-04-18T01:17:28.643Z,1.90
2023-04-18T01:20:31.662Z,2.08
2023-04-18T01:23:34.979Z,2.10
2023-04-18T01:26:38.430Z,1.60
2023-04-18T01:29:41.638Z,1.95
2023-04-18T01:32:45.278Z,1.95
2023-04-18T01:35:48.554Z,2.00
2023-04-18T01:38:51.519Z,2.17
2023-04-18T01:41:55.889Z,1.48
2023-04-18T01:44:58.924Z,1.58
2023-04-18T01:48:03.444Z,2.45
2023-04-18T01:51:06.702Z,1.60
2023-04-18T01:54:10.103Z,1.80
2023-04-18T01:57:13.063Z,1.98
2023-04-18T02:00:16.873Z,2.25
2023-04-18T02:03:19.857Z,2.05
2023-04-18T02:06:23.154Z,1.92
2023-04-18T02:09:26.070Z,2.10
2023-04-18T02:12:29.245Z,2.08
2023-04-18T02:15:32.439Z,2.03
2023-04-18T02:18:35.707Z,1.73
2023-04-18T02:21:38.697Z,2.83
2023-04-18T02:24:41.952Z,2.33
2023-04-18T02:27:45.183Z,2.50
2023-04-18T02:30:48.366Z,3.10
2023-04-18T02:33:51.987Z,2.58
2023-04-18T02:36:57.761Z,2.40
2023-04-18T02:40:00.674Z,2.75
2023-04-18T02:43:05.376Z,2.72
2023-04-18T02:46:08.663Z,2.62
2023-04-18T02:49:12.248Z,2.40
2023-04-18T02:52:15.502Z,2.72
2023-04-18T02:55:19.175Z,2.47
2023-04-18T02:58:22.860Z,2.70
2023-04-18T03:01:28.238Z,2.50
2023-04-18T03:04:31.093Z,2.42
2023-04-18T03:07:35.065Z,2.83
2023-04-18T03:10:40.240Z,2.83
2023-04-18T03:13:44.020Z,2.72
2023-04-18T03:16:48.988Z,2.77
2023-04-18T03:19:54.202Z,2.83
2023-04-18T03:22:57.118Z,2.87
2023-04-18T03:26:01.975Z,2.75
2023-04-18T03:29:06.705Z,2.85
2023-04-18T03:32:10.190Z,3.17
2023-04-18T03:35:13.181Z,2.75
2023-04-18T03:38:17.274Z,3.00
2023-04-18T03:41:20.395Z,2.65
2023-04-18T03:44:23.757Z,3.05
2023-04-18T03:47:26.883Z,2.53
2023-04-18T03:50:30.820Z,3.37
2023-04-18T03:53:34.396Z,2.92
2023-04-18T03:56:38.160Z,3.28
2023-04-18T03:59:41.791Z,2.97
2023-04-18T04:02:45.550Z,2.97
2023-04-18T04:05:52.500Z,3.33
2023-04-18T04:08:56.198Z,2.80
2023-04-18T04:11:59.867Z,3.58
2023-04-18T04:15:04.676Z,3.28
2023-04-18T04:18:10.406Z,3.35
2023-04-18T04:21:14.063Z,3.70
2023-04-18T04:24:17.896Z,4.15
2023-04-18T04:27:22.796Z,5.55
2023-04-18T04:30:26.394Z,4.00
2023-04-18T04:33:29.461Z,3.17
2023-04-18T04:36:34.993Z,3.37
2023-04-18T04:39:38.308Z,3.97
2023-04-18T04:42:43.819Z,4.05
2023-04-18T04:45:52.657Z,3.85
2023-04-18T04:48:57.745Z,3.80
2023-04-18T04:52:02.955Z,3.95
2023-04-18T04:55:07.214Z,3.72
2023-04-18T04:58:10.426Z,3.80
2023-04-18T05:01:14.158Z,4.00
2023-04-18T05:04:17.342Z,4.62
2023-04-18T05:07:20.870Z,4.45
2023-04-18T05:10:24.280Z,4.10
2023-04-18T05:13:27.600Z,3.60
2023-04-18T05:16:30.533Z,3.83
2023-04-18T05:19:33.817Z,4.05
2023-04-18T05:22:37.957Z,3.90
2023-04-18T05:25:41.247Z,3.80
2023-04-18T05:28:44.497Z,4.20
2023-04-18T05:31:48.026Z,3.83
2023-04-18T05:34:51.397Z,3.90
2023-04-18T05:37:54.569Z,4.35
2023-04-18T05:41:00.402Z,4.55
2023-04-18T05:44:05.691Z,4.72
2023-04-18T05:47:08.919Z,4.45
2023-04-18T05:50:12.076Z,4.72
2023-04-18T05:53:15.334Z,3.72
2023-04-18T05:56:18.571Z,4.37
2023-04-18T05:59:21.654Z,4.80
2023-04-18T06:02:24.944Z,3.90
2023-04-18T06:05:28.752Z,4.03
2023-04-18T06:08:31.689Z,3.87
2023-04-18T06:11:36.465Z,4.32
2023-04-18T06:14:39.386Z,4.75
2023-04-18T06:17:44.807Z,4.32
2023-04-18T06:23:51.960Z,4.43
2023-04-18T06:26:55.425Z,4.30
2023-04-18T06:29:58.764Z,3.90
2023-04-18T06:33:01.803Z,4.18
2023-04-18T06:36:05.796Z,4.47
2023-04-18T06:39:08.796Z,4.05
2023-04-18T06:42:11.952Z,4.55
2023-04-18T06:45:20.189Z,3.90
2023-04-18T06:48:23.426Z,3.92
2023-04-18T06:51:27.464Z,3.87
2023-04-18T06:54:30.709Z,3.90
2023-04-18T06:57:33.548Z,4.37
2023-04-18T07:00:36.871Z,3.78
2023-04-18T07:03:39.870Z,3.95
2023-04-18T07:06:43.512Z,4.12
2023-04-18T07:09:46.632Z,4.22
2023-04-18T07:12:49.785Z,3.70
2023-04-18T07:15:52.669Z,4.03
2023-04-18T07:18:56.017Z,4.25
2023-04-18T07:21:58.997Z,4.07
2023-04-18T07:25:02.160Z,3.70
2023-04-18T07:28:05.155Z,3.50
2023-04-18T07:31:11.819Z,3.55
2023-04-18T07:34:15.233Z,3.60
2023-04-18T07:37:19.194Z,3.90
2023-04-18T07:40:22.472Z,3.08
2023-04-18T07:43:26.313Z,3.50
2023-04-18T07:46:32.497Z,2.80
2023-04-18T07:49:35.883Z,2.40
2023-04-18T07:52:39.534Z,2.00
2023-04-18T07:55:43.568Z,1.98
2023-04-18T07:58:47.606Z,2.15
2023-04-18T08:01:50.819Z,2.30
2023-04-18T08:04:56.224Z,1.77
2023-04-18T08:07:59.424Z,1.55
2023-04-18T08:11:02.861Z,1.98
2023-04-18T08:14:05.935Z,4.60
2023-04-18T08:17:09.130Z,3.78
2023-04-18T08:20:13.170Z,1.45
2023-04-18T08:23:16.335Z,1.60
2023-04-18T08:26:19.875Z,2.67
2023-04-18T08:29:23.038Z,1.90
2023-04-18T08:32:26.245Z,1.85
2023-04-18T08:35:29.531Z,1.50
2023-04-18T08:38:33.897Z,1.40
2023-04-18T08:41:39.730Z,1.30
2023-04-18T08:44:43.158Z,1.60
2023-04-18T08:47:47.179Z,1.67
2023-04-18T08:50:49.952Z,2.03
2023-04-18T08:53:53.465Z,1.37
2023-04-18T08:57:26.944Z,1.30
2023-04-18T09:00:30.619Z,1.60
2023-04-18T09:03:42.677Z,1.67
2023-04-18T09:06:53.134Z,1.77
2023-04-18T09:09:57.820Z,2.45
2023-04-18T09:13:03.772Z,4.50
2023-04-18T09:16:08.095Z,7.87
2023-04-18T09:19:18.999Z,1.70
2023-04-18T09:22:22.330Z,1.80
2023-04-18T09:25:30.615Z,1.40
2023-04-18T09:28:35.158Z,1.30
2023-04-18T09:35:04.304Z,1.62
2023-04-18T09:38:08.119Z,1.50
2023-04-18T09:41:12.398Z,1.37
2023-04-18T09:44:17.240Z,1.30
2023-04-18T09:47:20.660Z,1.48
2023-04-18T09:50:23.998Z,1.60
2023-04-18T09:53:27.093Z,1.30
2023-04-18T09:56:32.105Z,1.55
2023-04-18T09:59:47.688Z,1.23
2023-04-18T10:02:58.101Z,1.30
2023-04-18T10:06:01.494Z,1.00
2023-04-18T10:09:04.862Z,1.20
2023-04-18T10:12:08.656Z,1.20
2023-04-18T10:15:11.996Z,1.30
2023-04-18T10:18:19.130Z,1.08
2023-04-18T10:21:22.295Z,1.15
2023-04-18T10:24:50.265Z,1.42
2023-04-18T10:27:58.460Z,1.25
2023-04-18T10:31:05.792Z,1.30
2023-04-18T10:34:08.798Z,1.00
2023-04-18T10:37:13.171Z,1.30
2023-04-18T10:40:16.093Z,1.30
2023-04-18T10:43:19.519Z,1.10
2023-04-18T10:46:31.869Z,1.23
2023-04-18T10:49:39.196Z,1.10
2023-04-18T10:52:42.692Z,1.42
2023-04-18T10:55:47.667Z,1.08
2023-04-18T11:02:23.245Z,1.30
2023-04-18T11:05:28.685Z,1.10
2023-04-18T11:08:33.187Z,1.20
2023-04-18T11:11:36.120Z,1.30
2023-04-18T11:14:48.410Z,1.20
2023-04-18T11:17:59.901Z,1.02
2023-04-18T11:21:03.981Z,1.08
2023-04-18T11:24:06.933Z,1.20
2023-04-18T11:27:12.651Z,0.95
2023-04-18T11:30:17.013Z,1.20
2023-04-18T11:33:20.352Z,1.00
2023-04-18T11:36:23.683Z,0.90
2023-04-18T11:39:26.831Z,1.00
2023-04-18T11:42:33.131Z,1.10
2023-04-18T11:45:36.399Z,1.15
2023-04-18T11:48:45.482Z,1.12
2023-04-18T11:51:48.668Z,1.35
2023-04-18T11:54:51.957Z,1.08
2023-04-18T11:57:56.699Z,0.97
2023-04-18T12:01:00.989Z,1.05
2023-04-18T12:04:06.782Z,0.80
2023-04-18T12:07:09.881Z,1.00
2023-04-18T12:10:22.385Z,1.20
2023-04-18T12:13:27.248Z,1.40
2023-04-18T12:16:30.908Z,1.33
2023-04-18T12:19:34.412Z,1.42
2023-04-18T12:22:52.461Z,1.07
2023-04-18T12:26:12.232Z,1.15
2023-04-18T12:29:15.771Z,1.60
2023-04-18T12:32:18.915Z,1.23
2023-04-18T12:35:23.163Z,1.50
2023-04-18T12:38:26.168Z,1.67
2023-04-18T12:41:29.379Z,1.62
2023-04-18T12:44:32.314Z,1.60
2023-04-18T12:47:37.167Z,1.40
2023-04-18T12:50:40.088Z,1.58
2023-04-18T12:53:44.641Z,1.67
2023-04-18T12:56:47.838Z,1.60
2023-04-18T12:59:51.064Z,1.70
2023-04-18T13:02:54.151Z,1.80
2023-04-18T13:05:57.557Z,2.50
2023-04-18T13:09:00.543Z,2.28
2023-04-18T13:12:03.883Z,2.50
2023-04-18T13:15:10.635Z,1.90
2023-04-18T13:18:13.846Z,2.15
2023-04-18T13:21:16.861Z,1.80
2023-04-18T13:24:20.141Z,1.50
2023-04-18T13:27:23.010Z,1.58
2023-04-18T13:30:26.308Z,1.40
2023-04-18T13:33:30.642Z,1.40
2023-04-18T13:36:36.270Z,1.65
2023-04-18T13:39:40.403Z,1.12
2023-04-18T13:42:43.769Z,1.60
2023-04-18T13:45:46.671Z,1.73
2023-04-18T13:48:50.082Z,1.67
2023-04-18T13:51:59.026Z,1.40
2023-04-18T13:55:02.241Z,1.30
2023-04-18T13:58:05.163Z,1.17
2023-04-18T14:01:08.661Z,1.27
2023-04-18T14:04:11.885Z,1.50
2023-04-18T14:07:15.107Z,1.40
2023-04-18T14:10:18.339Z,1.73
2023-04-18T14:13:21.325Z,1.50
2023-04-18T14:16:24.540Z,1.50
2023-04-18T14:19:27.529Z,1.48
2023-04-18T14:22:31.244Z,1.67
2023-04-18T14:25:35.460Z,1.90
2023-04-18T14:28:38.793Z,1.62
2023-04-18T14:31:42.848Z,1.52
2023-04-18T14:34:46.500Z,1.60
2023-04-18T14:37:49.374Z,1.62
2023-04-18T14:40:52.532Z,2.00
2023-04-18T14:43:55.359Z,1.58
2023-04-18T14:46:58.567Z,1.67
2023-04-18T14:50:01.532Z,1.27
2023-04-18T14:53:06.188Z,1.65
2023-04-18T14:59:16.444Z,1.67
2023-04-18T15:02:20.184Z,1.62
2023-04-18T15:05:26.676Z,1.73
2023-04-18T15:08:32.698Z,2.30
2023-04-18T15:11:36.136Z,1.80
2023-04-18T15:14:39.680Z,1.77
2023-04-18T15:17:42.576Z,2.27
2023-04-18T15:20:45.969Z,2.12
2023-04-18T15:23:49.213Z,1.70
2023-04-18T15:26:53.076Z,2.00
2023-04-18T15:29:56.705Z,2.12
2023-04-18T15:32:59.707Z,2.00
2023-04-18T15:36:05.879Z,2.22
2023-04-18T15:39:09.298Z,2.45
2023-04-18T15:42:12.493Z,2.20
2023-04-18T15:45:15.693Z,1.85
2023-04-18T15:48:18.858Z,2.05
2023-04-18T15:51:22.290Z,1.70
2023-04-18T15:54:25.612Z,2.17
2023-04-18T15:57:29.889Z,1.92
2023-04-18T16:03:36.393Z,2.00
2023-04-18T16:06:40.632Z,1.83
2023-04-18T16:09:45.625Z,1.90
2023-04-18T16:12:48.585Z,2.53
2023-04-18T16:15:52.660Z,2.08
2023-04-18T16:18:55.532Z,2.08
2023-04-18T16:21:58.861Z,2.30
2023-04-18T16:25:01.987Z,2.05
2023-04-18T16:28:05.335Z,1.98
2023-04-18T16:31:08.138Z,2.30
2023-04-18T16:34:12.516Z,1.62
2023-04-18T16:37:16.143Z,2.45
2023-04-18T16:40:21.964Z,2.17
2023-04-18T16:43:27.057Z,2.78
2023-04-18T16:46:32.400Z,2.67
2023-04-18T16:49:35.855Z,2.05
2023-04-18T16:52:39.881Z,3.00
2023-04-18T16:55:43.265Z,3.03
2023-04-18T16:58:46.956Z,3.62
2023-04-18T17:01:50.421Z,3.60
2023-04-18T17:04:53.837Z,2.78
2023-04-18T17:07:56.871Z,2.58
2023-04-18T17:11:02.127Z,2.65
2023-04-18T17:14:05.861Z,2.30
2023-04-18T17:17:09.548Z,1.92
2023-04-18T17:20:12.617Z,2.17
2023-04-18T17:23:15.807Z,2.22
2023-04-18T17:26:19.038Z,2.50
2023-04-18T17:29:23.830Z,2.50
2023-04-18T17:32:29.638Z,3.10
2023-04-18T17:38:41.136Z,2.33
2023-04-18T17:41:45.393Z,2.37
2023-04-18T17:44:48.662Z,3.03
2023-04-18T17:47:52.359Z,5.83
2023-04-18T17:50:55.980Z,5.18
2023-04-18T17:54:00.886Z,4.82
2023-04-18T17:57:08.148Z,5.12
2023-04-18T18:00:14.354Z,4.80
2023-04-18T18:03:20.717Z,4.78
2023-04-18T18:06:24.190Z,4.10
2023-04-18T18:09:27.721Z,3.78
2023-04-18T18:12:35.859Z,3.72
2023-04-18T18:15:40.765Z,3.25
2023-04-18T18:18:47.079Z,3.45
2023-04-18T18:21:51.033Z,2.90
2023-04-18T18:24:54.750Z,8.07
2023-04-18T18:28:02.815Z,8.55
2023-04-18T18:31:06.132Z,6.10
2023-04-18T18:34:10.858Z,5.73
2023-04-18T18:37:14.791Z,5.57
2023-04-18T18:40:19.820Z,5.03
2023-04-18T18:43:26.968Z,4.35
2023-04-18T18:46:31.520Z,3.97
2023-04-18T18:49:37.088Z,4.35
2023-04-18T18:52:43.718Z,3.80
2023-04-18T18:55:48.519Z,4.07
2023-04-18T18:58:55.640Z,4.40
2023-04-18T19:02:00.487Z,4.35
2023-04-18T19:08:10.083Z,3.15
2023-04-18T19:11:16.375Z,4.07
2023-04-18T19:14:22.070Z,4.05
2023-04-18T19:17:27.875Z,4.43
2023-04-18T19:20:33.176Z,4.10
2023-04-18T19:26:44.725Z,3.50
2023-04-18T19:29:50.162Z,3.03
2023-04-18T19:32:55.935Z,3.05
2023-04-18T19:36:02.748Z,3.53
2023-04-18T19:39:07.669Z,3.37
2023-04-18T19:42:14.777Z,2.60
2023-04-18T19:45:22.123Z,2.80
2023-04-18T19:48:27.978Z,2.97
2023-04-18T19:51:31.934Z,3.25
2023-04-18T19:54:36.243Z,6.32
2023-04-18T19:57:42.056Z,6.30
2023-04-18T20:00:46.490Z,7.07
2023-04-18T20:03:53.284Z,3.92
2023-04-18T20:06:57.945Z,3.03
2023-04-18T20:10:04.405Z,2.95
2023-04-18T20:13:09.534Z,2.45
2023-04-18T20:16:15.986Z,2.10
2023-04-18T20:19:20.347Z,1.98
2023-04-18T20:22:28.429Z,2.22
2023-04-18T20:25:34.422Z,2.30
2023-04-18T20:28:38.606Z,2.10
2023-04-18T20:31:43.005Z,2.00
2023-04-18T20:37:51.766Z,2.15
2023-04-18T20:40:55.994Z,1.85
2023-04-18T20:47:04.224Z,2.22
2023-04-18T20:50:08.404Z,2.55
2023-04-18T20:53:11.905Z,2.70
2023-04-18T20:56:15.024Z,3.28
2023-04-18T20:59:19.655Z,2.33
2023-04-18T21:02:22.821Z,2.30
2023-04-18T21:05:28.919Z,3.28
2023-04-18T21:08:31.988Z,3.35
2023-04-18T21:11:35.148Z,2.90
2023-04-18T21:14:37.945Z,2.87
2023-04-18T21:17:41.104Z,2.42
2023-04-18T21:20:44.010Z,2.97
2023-04-18T21:23:47.190Z,2.58
2023-04-18T21:26:50.033Z,2.87
2023-04-18T21:29:54.012Z,3.00
2023-04-18T21:32:57.058Z,3.03
2023-04-18T21:36:00.311Z,2.85
2023-04-18T21:39:04.169Z,3.10
2023-04-18T21:42:07.412Z,2.67
2023-04-18T21:45:11.083Z,2.95
2023-04-18T21:48:14.264Z,2.60
2023-04-18T21:51:17.565Z,2.70
2023-04-18T21:54:21.207Z,2.80
2023-04-18T21:57:24.200Z,3.12
2023-04-18T22:00:27.828Z,3.35
2023-04-18T22:03:34.501Z,2.92
2023-04-18T22:06:37.593Z,2.92
2023-04-18T22:09:40.914Z,2.80
2023-04-18T22:12:44.004Z,2.60
2023-04-18T22:15:48.325Z,3.58
2023-04-18T22:18:52.433Z,2.55
2023-04-18T22:21:56.334Z,2.60
2023-04-18T22:24:59.426Z,2.65
2023-04-18T22:28:03.160Z,3.47
2023-04-18T22:31:06.317Z,2.62
2023-04-18T22:34:09.711Z,2.95
2023-04-18T22:37:12.567Z,3.03
2023-04-18T22:40:16.624Z,3.40
2023-04-18T22:43:23.023Z,2.87
2023-04-18T22:46:27.460Z,3.10
2023-04-18T22:49:30.546Z,3.40
2023-04-18T22:52:34.464Z,2.83
2023-04-18T22:55:41.554Z,3.45
2023-04-18T22:58:44.741Z,3.15
2023-04-18T23:01:47.655Z,2.85
2023-04-18T23:04:51.156Z,2.83
2023-04-18T23:07:54.366Z,3.10
2023-04-18T23:10:58.015Z,3.25
2023-04-18T23:14:00.940Z,2.95
2023-04-18T23:17:04.270Z,3.03
2023-04-18T23:20:07.763Z,2.37
2023-04-18T23:23:11.336Z,3.08
2023-04-18T23:26:14.851Z,2.50
2023-04-18T23:29:18.232Z,2.97
2023-04-18T23:32:21.107Z,2.70
2023-04-18T23:35:24.565Z,2.53
2023-04-18T23:38:27.907Z,3.05
2023-04-18T23:42:05.325Z,3.03
2023-04-18T23:45:28.194Z,3.15
2023-04-18T23:48:31.491Z,3.05
2023-04-18T23:51:34.630Z,3.33
2023-04-18T23:54:37.988Z,2.65
2023-04-18T23:57:40.928Z,3.00
